Time;durP1;ratioP1;P1;durP2;ratioP2;P2;SDS_P1;SDS_P2;PMS_P1;PMS_P2;Temp;Humidity;BMP_temperature;BMP_pressure;BME280_temperature;BME280_humidity;BME280_pressure;Samples;Min_cycle;Max_cycle;Signal;HPM_P1;HPM_P2
2022/06/25 00:00:05;;;;;;;0.50;0.30;;;17.60;99.90;;;;;;5054361;28;20479;-80
2022/06/25 00:02:33;;;;;;;0.50;0.40;;;17.60;99.90;;;;;;5053985;28;20832;-80
2022/06/25 00:07:44;;;;;;;0.50;0.30;;;17.60;99.90;;;;;;5053924;28;20411;-79
2022/06/25 00:10:11;;;;;;;0.50;0.30;;;17.50;99.90;;;;;;5054515;28;20532;-79
2022/06/25 00:12:37;;;;;;;0.50;0.30;;;17.50;99.90;;;;;;5053295;28;20453;-77
2022/06/25 00:15:06;;;;;;;0.50;0.40;;;17.50;99.90;;;;;;5054014;28;20487;-79
2022/06/25 00:17:34;;;;;;;0.50;0.40;;;17.50;99.90;;;;;;5054159;28;20650;-80
2022/06/25 00:20:01;;;;;;;0.50;0.40;;;17.50;99.90;;;;;;5053869;28;20531;-79
2022/06/25 00:22:28;;;;;;;0.50;0.40;;;17.50;99.90;;;;;;5053539;28;20559;-78
2022/06/25 00:24:55;;;;;;;0.50;0.40;;;17.40;99.90;;;;;;5053724;28;20520;-78
2022/06/25 00:27:22;;;;;;;0.80;0.77;;;17.50;99.90;;;;;;5053461;28;21002;-80
2022/06/25 00:29:49;;;;;;;0.50;0.40;;;17.40;99.90;;;;;;5053488;28;20861;-79
2022/06/25 00:32:16;;;;;;;0.97;0.97;;;17.40;99.90;;;;;;5053847;28;20464;-80
2022/06/25 00:34:45;;;;;;;0.80;0.80;;;17.40;99.90;;;;;;5053453;28;20464;-78
2022/06/25 00:37:12;;;;;;;0.50;0.30;;;17.30;99.90;;;;;;5053820;28;20527;-82
2022/06/25 00:39:39;;;;;;;0.50;0.30;;;17.30;99.90;;;;;;5053388;28;20441;-79
2022/06/25 00:42:09;;;;;;;0.50;0.40;;;17.30;99.90;;;;;;5052954;28;20571;-77
2022/06/25 00:44:37;;;;;;;0.50;0.40;;;17.30;99.90;;;;;;5052633;28;20444;-78
2022/06/25 00:47:05;;;;;;;0.50;0.30;;;17.30;99.90;;;;;;5053721;28;20475;-79
2022/06/25 00:49:32;;;;;;;0.50;0.40;;;17.30;99.90;;;;;;5052747;28;20442;-79
2022/06/25 00:52:03;;;;;;;0.50;0.40;;;17.30;99.90;;;;;;5053039;28;20462;-79
2022/06/25 00:54:36;;;;;;;0.57;0.40;;;17.30;99.90;;;;;;5053534;28;20448;-79
2022/06/25 00:57:06;;;;;;;0.50;0.40;;;17.30;99.90;;;;;;5053541;28;20424;-79
2022/06/25 00:59:38;;;;;;;0.50;0.40;;;17.30;99.90;;;;;;5052651;28;20943;-78
2022/06/25 01:02:05;;;;;;;0.50;0.40;;;17.30;99.90;;;;;;5052797;28;20485;-79
2022/06/25 01:04:32;;;;;;;0.50;0.30;;;17.30;99.90;;;;;;5052908;28;21009;-80
2022/06/25 01:07:00;;;;;;;0.50;0.40;;;17.20;99.90;;;;;;5053029;28;20437;-79
2022/06/25 01:09:27;;;;;;;0.50;0.33;;;17.20;99.90;;;;;;5052871;28;20520;-78
2022/06/25 01:11:54;;;;;;;0.50;0.30;;;17.20;99.90;;;;;;5052439;28;20877;-80
2022/06/25 01:14:21;;;;;;;0.50;0.30;;;17.20;99.90;;;;;;5053106;28;20527;-79
2022/06/25 01:16:48;;;;;;;0.50;0.40;;;17.20;99.90;;;;;;5052938;28;20584;-79
2022/06/25 01:19:15;;;;;;;0.50;0.30;;;17.10;99.90;;;;;;5051997;28;20878;-79
2022/06/25 01:21:42;;;;;;;0.50;0.40;;;17.10;99.90;;;;;;5052986;28;20464;-79
2022/06/25 01:24:11;;;;;;;0.50;0.30;;;17.10;99.90;;;;;;5052792;28;20444;-80
2022/06/25 01:26:40;;;;;;;0.50;0.37;;;17.10;99.90;;;;;;5052530;28;20539;-79
2022/06/25 01:29:08;;;;;;;0.50;0.40;;;17.10;99.90;;;;;;5052186;28;20818;-80
2022/06/25 01:31:35;;;;;;;3.40;1.60;;;17.10;99.90;;;;;;5052212;28;20546;-76
2022/06/25 01:34:02;;;;;;;0.60;0.60;;;17.10;99.90;;;;;;5052632;28;20529;-80
2022/06/25 01:36:29;;;;;;;0.50;0.40;;;17.10;99.90;;;;;;5052541;28;20536;-79
2022/06/25 01:38:56;;;;;;;0.50;0.40;;;17.10;99.90;;;;;;5051887;28;21024;-80
2022/06/25 01:41:24;;;;;;;0.50;0.40;;;17.10;99.90;;;;;;5051863;28;20549;-78
2022/06/25 01:43:51;;;;;;;0.50;0.30;;;17.10;99.90;;;;;;5052666;28;21072;-78
2022/06/25 01:46:18;;;;;;;0.50;0.40;;;17.10;99.90;;;;;;5052320;28;20452;-78
2022/06/25 01:48:45;;;;;;;0.50;0.40;;;17.00;99.90;;;;;;5051671;28;20480;-77
2022/06/25 01:51:13;;;;;;;0.50;0.40;;;17.10;99.90;;;;;;5052483;28;20461;-78
2022/06/25 01:53:40;;;;;;;0.50;0.40;;;17.10;99.90;;;;;;5052153;28;20823;-79
2022/06/25 01:56:08;;;;;;;0.50;0.37;;;17.10;99.90;;;;;;5051999;28;20509;-79
2022/06/25 01:58:37;;;;;;;0.50;0.30;;;17.10;99.90;;;;;;5051428;28;20449;-78
2022/06/25 02:01:04;;;;;;;0.50;0.30;;;17.00;99.90;;;;;;5052128;28;20823;-79
2022/06/25 02:03:31;;;;;;;0.50;0.40;;;17.00;99.90;;;;;;5052153;28;20911;-80
2022/06/25 02:05:58;;;;;;;0.50;0.40;;;17.00;99.90;;;;;;5052114;28;20534;-79
2022/06/25 02:08:27;;;;;;;0.50;0.30;;;17.00;99.90;;;;;;5051060;28;20547;-78
2022/06/25 02:10:54;;;;;;;0.50;0.40;;;16.90;99.90;;;;;;5051637;28;20471;-77
2022/06/25 02:13:22;;;;;;;0.50;0.30;;;17.00;99.90;;;;;;5052007;28;20523;-79
2022/06/25 02:15:51;;;;;;;0.50;0.40;;;16.90;99.90;;;;;;5051960;28;20532;-79
2022/06/25 02:18:18;;;;;;;0.50;0.37;;;17.00;99.90;;;;;;5051815;28;20463;-78
2022/06/25 02:20:44;;;;;;;0.90;0.80;;;16.90;99.90;;;;;;5051931;28;20881;-79
2022/06/25 02:23:13;;;;;;;0.70;0.70;;;16.90;99.90;;;;;;5051655;28;20474;-79
2022/06/25 02:25:40;;;;;;;0.50;0.40;;;16.90;99.90;;;;;;5051793;28;20533;-76
2022/06/25 02:28:07;;;;;;;0.50;0.40;;;16.80;99.90;;;;;;5051479;28;20443;-80
2022/06/25 02:30:34;;;;;;;0.50;0.40;;;16.80;99.90;;;;;;5052120;28;20440;-78
2022/06/25 02:33:02;;;;;;;0.50;0.40;;;16.80;99.90;;;;;;5051900;28;20512;-79
2022/06/25 02:35:29;;;;;;;0.50;0.40;;;16.70;99.90;;;;;;5051932;28;20441;-77
2022/06/25 02:37:56;;;;;;;0.50;0.40;;;16.70;99.90;;;;;;5051535;28;20444;-78
2022/06/25 02:40:23;;;;;;;0.50;0.33;;;16.70;99.90;;;;;;5052007;28;20532;-78
2022/06/25 02:42:50;;;;;;;0.50;0.40;;;16.70;99.90;;;;;;5051513;28;20540;-79
2022/06/25 02:45:17;;;;;;;0.50;0.30;;;16.70;99.90;;;;;;5051443;28;20531;-79
2022/06/25 02:47:44;;;;;;;0.50;0.40;;;16.70;99.90;;;;;;5051802;28;21132;-75
2022/06/25 02:50:12;;;;;;;0.60;0.50;;;16.80;99.90;;;;;;5051817;28;21012;-79
2022/06/25 02:52:39;;;;;;;0.50;0.40;;;16.80;99.90;;;;;;5051676;28;20463;-78
2022/06/25 02:55:07;;;;;;;0.60;0.60;;;16.70;99.90;;;;;;5051620;28;20443;-78
2022/06/25 03:00:18;;;;;;;0.50;0.40;;;16.80;99.90;;;;;;5051824;28;20456;-79
2022/06/25 03:02:45;;;;;;;0.50;0.40;;;16.80;99.90;;;;;;5052002;28;21087;-78
2022/06/25 03:05:13;;;;;;;0.80;0.80;;;16.80;99.90;;;;;;5051584;28;20459;-80
2022/06/25 03:07:40;;;;;;;0.50;0.40;;;16.90;99.90;;;;;;5051339;28;20479;-79
2022/06/25 03:10:07;;;;;;;0.70;0.70;;;16.90;99.90;;;;;;5055021;28;20441;-78
2022/06/25 03:12:35;;;;;;;0.50;0.40;;;16.90;99.90;;;;;;5055857;28;20499;-79
2022/06/25 03:15:02;;;;;;;0.70;0.63;;;16.90;99.90;;;;;;5055101;28;20443;-79
2022/06/25 03:17:29;;;;;;;0.50;0.40;;;16.90;99.90;;;;;;5055385;28;20451;-79
2022/06/25 03:19:56;;;;;;;1.07;1.07;;;17.00;99.90;;;;;;5054747;28;20450;-79
2022/06/25 03:22:25;;;;;;;0.50;0.30;;;17.00;99.90;;;;;;5055669;28;20460;-78
2022/06/25 03:24:52;;;;;;;0.50;0.30;;;17.00;99.90;;;;;;5055403;28;20439;-78
2022/06/25 03:27:19;;;;;;;1.17;1.07;;;17.00;99.90;;;;;;5054749;28;20447;-80
2022/06/25 03:29:45;;;;;;;0.50;0.40;;;17.00;99.90;;;;;;5054294;28;21022;-78
2022/06/25 03:32:12;;;;;;;0.50;0.33;;;17.00;99.90;;;;;;5054883;28;20542;-79
2022/06/25 03:34:39;;;;;;;0.50;0.40;;;17.00;99.90;;;;;;5055186;28;20937;-76
2022/06/25 03:37:06;;;;;;;0.50;0.30;;;17.00;99.90;;;;;;5054588;28;20442;-78
2022/06/25 03:39:34;;;;;;;0.50;0.40;;;17.00;99.90;;;;;;5053817;28;20909;-78
2022/06/25 03:42:01;;;;;;;3.37;1.47;;;17.00;99.90;;;;;;5055322;28;20571;-78
2022/06/25 03:44:28;;;;;;;0.50;0.40;;;17.00;99.90;;;;;;5056285;28;20509;-79
2022/06/25 03:46:55;;;;;;;0.50;0.40;;;17.00;99.90;;;;;;5056725;28;20551;-78
2022/06/25 03:49:22;;;;;;;1.00;0.97;;;17.00;99.90;;;;;;5057350;28;20447;-82
2022/06/25 03:51:49;;;;;;;0.50;0.30;;;17.00;99.90;;;;;;5057321;28;20497;-80
2022/06/25 03:54:16;;;;;;;0.50;0.40;;;17.00;99.90;;;;;;5055923;28;20798;-82
2022/06/25 03:56:45;;;;;;;0.50;0.40;;;17.10;99.90;;;;;;5057109;28;20875;-77
2022/06/25 03:59:12;;;;;;;0.50;0.30;;;17.00;99.90;;;;;;5054910;28;20443;-79
2022/06/25 04:01:39;;;;;;;0.50;0.30;;;17.00;99.90;;;;;;5054290;28;20457;-82
2022/06/25 04:04:06;;;;;;;2.20;1.97;;;17.10;99.90;;;;;;5053770;28;20563;-78
2022/06/25 04:06:33;;;;;;;6.00;0.93;;;17.10;99.90;;;;;;5054030;28;20532;-78
2022/06/25 04:08:59;;;;;;;0.50;0.30;;;17.10;99.90;;;;;;5053414;28;20477;-79
2022/06/25 04:11:26;;;;;;;0.60;0.60;;;17.20;99.90;;;;;;5053600;28;20461;-79
2022/06/25 04:13:54;;;;;;;0.50;0.40;;;17.20;99.90;;;;;;5053689;28;20998;-78
2022/06/25 04:16:23;;;;;;;0.60;0.40;;;17.20;99.90;;;;;;5054497;28;20506;-78
2022/06/25 04:18:50;;;;;;;0.77;0.70;;;17.20;99.90;;;;;;5053470;28;20441;-79
2022/06/25 04:21:17;;;;;;;0.67;0.60;;;17.20;99.90;;;;;;5054620;28;20472;-78
2022/06/25 04:23:44;;;;;;;1.80;0.87;;;17.20;99.90;;;;;;5055082;28;20477;-78
2022/06/25 04:26:11;;;;;;;0.50;0.30;;;17.20;99.90;;;;;;5053399;28;20536;-79
2022/06/25 04:31:23;;;;;;;2.80;1.80;;;17.30;99.90;;;;;;5053609;28;20513;-78
2022/06/25 04:33:51;;;;;;;0.50;0.40;;;17.40;99.90;;;;;;5053757;28;20482;-79
2022/06/25 04:36:18;;;;;;;0.50;0.37;;;17.40;99.90;;;;;;5056140;28;20487;-79
2022/06/25 04:38:45;;;;;;;0.50;0.30;;;17.50;99.90;;;;;;5055366;28;20531;-80
2022/06/25 04:41:12;;;;;;;0.87;0.87;;;17.50;99.90;;;;;;5055786;28;20559;-79
2022/06/25 04:43:39;;;;;;;0.50;0.40;;;17.50;99.90;;;;;;5055390;28;20568;-80
2022/06/25 04:46:06;;;;;;;0.63;0.63;;;17.50;99.90;;;;;;5053948;28;20509;-78
2022/06/25 04:48:34;;;;;;;1.83;1.73;;;17.60;99.90;;;;;;5052712;28;20528;-79
2022/06/25 04:51:01;;;;;;;1.27;1.17;;;17.60;99.90;;;;;;5052900;28;20549;-78
2022/06/25 04:53:28;;;;;;;0.50;0.30;;;17.70;99.90;;;;;;5052676;28;20528;-82
2022/06/25 04:55:55;;;;;;;0.60;0.40;;;17.70;99.90;;;;;;5052621;28;20463;-79
2022/06/25 04:58:21;;;;;;;0.60;0.60;;;17.70;99.90;;;;;;5052302;28;21014;-78
2022/06/25 05:00:49;;;;;;;0.60;0.50;;;17.80;99.90;;;;;;5052366;28;20524;-80
2022/06/25 05:03:17;;;;;;;0.50;0.40;;;17.90;99.90;;;;;;5052110;28;20469;-78
2022/06/25 05:05:45;;;;;;;0.50;0.40;;;17.90;99.90;;;;;;5052615;28;20528;-78
2022/06/25 05:08:12;;;;;;;0.50;0.37;;;18.00;99.90;;;;;;5052296;28;20530;-78
2022/06/25 05:10:39;;;;;;;0.50;0.30;;;18.00;99.90;;;;;;5052064;28;20440;-78
2022/06/25 05:13:15;;;;;;;0.60;0.50;;;18.10;99.90;;;;;;5052199;28;20540;-78
2022/06/25 05:15:42;;;;;;;0.50;0.40;;;18.20;99.90;;;;;;5052079;28;20476;-77
2022/06/25 05:18:10;;;;;;;0.50;0.30;;;18.20;99.90;;;;;;5052070;28;20444;-79
2022/06/25 05:20:38;;;;;;;0.50;0.40;;;18.30;99.90;;;;;;5052693;28;20966;-78
2022/06/25 05:23:07;;;;;;;0.50;0.40;;;18.30;99.90;;;;;;5052268;28;20439;-81
2022/06/25 05:25:34;;;;;;;6.23;1.17;;;18.40;99.90;;;;;;5052462;28;20450;-79
2022/06/25 05:28:01;;;;;;;0.50;0.50;;;18.40;99.90;;;;;;5052992;28;20505;-78
2022/06/25 05:30:28;;;;;;;0.50;0.40;;;18.50;99.90;;;;;;5055127;28;20448;-78
2022/06/25 05:32:55;;;;;;;0.50;0.40;;;18.60;99.90;;;;;;5055281;28;21045;-79
2022/06/25 05:35:22;;;;;;;1.07;0.97;;;18.60;99.90;;;;;;5056414;28;20473;-79
2022/06/25 05:37:49;;;;;;;0.63;0.63;;;18.60;99.90;;;;;;5055348;28;20807;-78
2022/06/25 05:40:18;;;;;;;0.50;0.50;;;18.70;99.90;;;;;;5055335;28;20528;-78
2022/06/25 05:42:44;;;;;;;0.50;0.40;;;18.80;99.90;;;;;;5053214;28;20479;-79
2022/06/25 05:45:11;;;;;;;0.60;0.50;;;18.90;99.90;;;;;;5053053;28;21014;-80
2022/06/25 05:47:39;;;;;;;0.50;0.30;;;18.90;99.90;;;;;;5053294;28;20504;-78
2022/06/25 05:50:07;;;;;;;0.50;0.40;;;19.00;99.90;;;;;;5054182;28;20437;-83
2022/06/25 05:52:34;;;;;;;0.50;0.30;;;19.10;99.90;;;;;;5052179;28;20457;-80
2022/06/25 05:55:00;;;;;;;0.50;0.40;;;19.20;99.90;;;;;;5118512;22;20482;-79
2022/06/25 05:57:29;;;;;;;0.50;0.40;;;19.30;99.90;;;;;;5073727;28;20503;-83
2022/06/25 05:59:56;;;;;;;0.50;0.50;;;19.50;99.90;;;;;;5090832;28;20427;-83
2022/06/25 06:02:23;;;;;;;0.80;0.80;;;19.60;99.90;;;;;;5094830;28;20451;-82
2022/06/25 06:04:49;;;;;;;1.47;1.37;;;19.60;99.90;;;;;;5094446;28;20933;-83
2022/06/25 06:07:16;;;;;;;0.50;0.30;;;19.70;99.90;;;;;;5093529;28;20930;-86
2022/06/25 06:09:43;;;;;;;0.50;0.40;;;19.80;99.90;;;;;;5094349;28;20431;-84
2022/06/25 06:12:10;;;;;;;0.70;0.70;;;19.90;99.90;;;;;;5094107;28;20526;-83
2022/06/25 06:14:38;;;;;;;0.60;0.60;;;20.00;99.90;;;;;;5094687;28;20526;-82
2022/06/25 06:17:05;;;;;;;0.50;0.30;;;20.00;99.90;;;;;;5094667;28;20470;-86
2022/06/25 06:19:32;;;;;;;3.70;1.17;;;20.10;99.90;;;;;;5094079;28;20509;-85
2022/06/25 06:21:59;;;;;;;0.60;0.53;;;20.20;99.90;;;;;;5095049;28;20467;-84
2022/06/25 06:24:26;;;;;;;0.50;0.40;;;20.30;99.90;;;;;;5095135;28;20483;-85
2022/06/25 06:26:53;;;;;;;0.57;0.47;;;20.40;99.90;;;;;;5094338;28;20514;-85
2022/06/25 06:29:20;;;;;;;0.50;0.30;;;20.60;99.90;;;;;;5095133;28;20489;-84
2022/06/25 06:31:49;;;;;;;0.50;0.40;;;20.80;99.90;;;;;;5095439;28;20530;-85
2022/06/25 06:34:15;;;;;;;0.60;0.60;;;21.10;99.90;;;;;;5095114;28;20530;-84
2022/06/25 06:36:42;;;;;;;0.80;0.70;;;21.20;99.90;;;;;;5088279;28;20458;-86
2022/06/25 06:39:10;;;;;;;0.50;0.50;;;21.50;99.90;;;;;;5082800;28;20450;-82
2022/06/25 06:41:36;;;;;;;0.60;0.40;;;22.50;99.90;;;;;;5085615;28;20450;-84
2022/06/25 06:44:03;;;;;;;0.50;0.40;;;23.40;99.90;;;;;;5085233;28;20515;-84
2022/06/25 06:46:30;;;;;;;0.60;0.50;;;24.60;99.90;;;;;;5077943;28;20866;-84
2022/06/25 06:48:59;;;;;;;0.50;0.40;;;26.00;99.90;;;;;;5077947;28;20440;-81
2022/06/25 06:51:25;;;;;;;0.70;0.60;;;27.00;99.90;;;;;;5078738;28;20471;-85
2022/06/25 06:53:52;;;;;;;0.50;0.30;;;27.90;99.90;;;;;;5077798;28;20520;-86
2022/06/25 06:56:19;;;;;;;0.50;0.40;;;27.60;99.90;;;;;;5077158;28;20482;-83
2022/06/25 06:58:47;;;;;;;0.50;0.30;;;28.30;99.90;;;;;;5077140;28;20527;-86
2022/06/25 07:01:13;;;;;;;0.50;0.50;;;29.10;99.90;;;;;;5078136;28;20439;-84
2022/06/25 07:03:40;;;;;;;0.50;0.40;;;30.00;98.60;;;;;;5080753;28;20459;-84
2022/06/25 07:06:08;;;;;;;0.50;0.30;;;30.90;97.10;;;;;;5081371;28;20520;-82
2022/06/25 07:08:36;;;;;;;0.60;0.40;;;31.40;90.60;;;;;;5078608;28;20435;-83
2022/06/25 07:11:27;;;;;;;0.50;0.30;;;31.70;88.10;;;;;;5078075;28;20997;-85
2022/06/25 07:13:49;;;;;;;0.50;0.30;;;31.70;85.30;;;;;;5078263;28;20963;-84
2022/06/25 07:16:16;;;;;;;0.50;0.30;;;31.90;86.40;;;;;;5078030;28;20535;-83
2022/06/25 07:18:43;;;;;;;0.50;0.40;;;32.60;82.40;;;;;;5078297;28;20907;-83
2022/06/25 07:21:11;;;;;;;0.50;0.40;;;32.80;78.70;;;;;;5078523;28;20950;-85
2022/06/25 07:23:38;;;;;;;0.50;0.30;;;32.10;77.00;;;;;;5078385;28;20965;-83
2022/06/25 07:26:05;;;;;;;2.53;1.03;;;32.70;77.60;;;;;;5077959;28;20535;-83
2022/06/25 07:28:32;;;;;;;0.50;0.30;;;33.10;73.00;;;;;;5077305;28;20531;-85
2022/06/25 07:30:59;;;;;;;0.50;0.30;;;32.40;75.40;;;;;;5076773;28;20496;-83
2022/06/25 07:33:26;;;;;;;0.50;0.30;;;32.50;75.90;;;;;;5077752;28;20527;-85
2022/06/25 07:35:53;;;;;;;0.50;0.40;;;32.60;74.10;;;;;;5077913;28;20496;-82
2022/06/25 07:38:21;;;;;;;0.50;0.30;;;32.80;75.00;;;;;;5077248;28;20472;-82
2022/06/25 07:40:48;;;;;;;0.50;0.30;;;33.00;73.30;;;;;;5077118;28;20495;-83
2022/06/25 07:43:15;;;;;;;0.50;0.30;;;33.20;72.10;;;;;;5076962;28;20539;-82
2022/06/25 07:45:42;;;;;;;0.50;0.30;;;33.70;70.60;;;;;;5077287;28;20526;-84
2022/06/25 07:48:09;;;;;;;0.50;0.47;;;33.30;67.90;;;;;;5077033;28;20474;-81
2022/06/25 07:53:22;;;;;;;0.60;0.50;;;31.90;73.00;;;;;;5077286;28;20408;-84
2022/06/25 07:55:49;;;;;;;0.60;0.40;;;31.60;71.30;;;;;;5076954;28;20543;-84
2022/06/25 07:58:17;;;;;;;0.63;0.63;;;30.90;74.60;;;;;;5077080;28;20436;-85
2022/06/25 08:00:44;;;;;;;0.50;0.30;;;31.10;76.20;;;;;;5077422;28;20476;-81
2022/06/25 08:03:11;;;;;;;0.50;0.47;;;31.50;74.80;;;;;;5077972;28;20533;-85
2022/06/25 08:05:38;;;;;;;0.50;0.40;;;32.50;73.00;;;;;;5076791;28;20480;-85
2022/06/25 08:08:05;;;;;;;0.50;0.30;;;33.40;69.80;;;;;;5077254;28;20527;-84
2022/06/25 08:10:34;;;;;;;0.50;0.40;;;33.00;70.00;;;;;;5077017;28;20552;-86
2022/06/25 08:13:02;;;;;;;0.50;0.30;;;33.10;68.50;;;;;;5077764;28;20874;-84
2022/06/25 08:15:29;;;;;;;0.50;0.30;;;34.00;69.20;;;;;;5076137;28;20494;-82
2022/06/25 08:17:55;;;;;;;0.60;0.50;;;33.40;68.80;;;;;;5077211;28;20432;-84
2022/06/25 08:20:22;;;;;;;0.50;0.40;;;34.00;66.00;;;;;;5077107;28;20480;-85
2022/06/25 08:22:50;;;;;;;0.50;0.30;;;34.10;64.50;;;;;;5077089;28;20444;-85
2022/06/25 08:25:17;;;;;;;0.50;0.30;;;33.20;65.00;;;;;;5077318;28;20558;-84
2022/06/25 08:27:50;;;;;;;0.50;0.30;;;33.70;65.70;;;;;;5076960;28;20436;-85
2022/06/25 08:30:17;;;;;;;0.50;0.50;;;34.70;64.20;;;;;;5075815;28;20948;-83
2022/06/25 08:32:44;;;;;;;0.50;0.30;;;34.90;60.90;;;;;;5075996;28;20522;-83
2022/06/25 08:35:11;;;;;;;0.50;0.30;;;33.60;62.90;;;;;;5076750;28;20463;-83
2022/06/25 08:37:38;;;;;;;0.50;0.40;;;34.10;63.00;;;;;;5076451;28;20432;-86
2022/06/25 08:40:07;;;;;;;0.50;0.40;;;33.90;63.00;;;;;;5076837;28;20444;-85
2022/06/25 08:42:34;;;;;;;0.50;0.40;;;33.00;62.70;;;;;;5076173;28;20448;-84
2022/06/25 08:45:03;;;;;;;0.50;0.30;;;32.30;64.00;;;;;;5076163;28;20536;-85
2022/06/25 08:47:30;;;;;;;0.50;0.40;;;32.00;63.40;;;;;;5076325;28;20889;-84
2022/06/25 08:49:58;;;;;;;0.70;0.50;;;32.20;64.50;;;;;;5076333;28;20937;-85
2022/06/25 08:52:28;;;;;;;0.60;0.50;;;32.70;64.60;;;;;;5076104;28;20440;-85
2022/06/25 08:54:56;;;;;;;0.50;0.30;;;32.80;61.60;;;;;;5076389;28;20556;-83
2022/06/25 08:57:23;;;;;;;0.50;0.40;;;33.10;62.60;;;;;;5077024;28;20811;-82
2022/06/25 08:59:50;;;;;;;0.50;0.40;;;34.20;63.50;;;;;;5077245;28;20623;-86
2022/06/25 09:02:18;;;;;;;0.50;0.40;;;34.40;59.60;;;;;;5076510;28;20441;-86
2022/06/25 09:04:45;;;;;;;0.50;0.30;;;34.80;59.10;;;;;;5075803;28;20570;-84
2022/06/25 09:07:13;;;;;;;1.10;1.10;;;34.70;58.90;;;;;;5076582;28;20452;-83
2022/06/25 09:09:40;;;;;;;0.50;0.30;;;34.30;59.50;;;;;;5075898;28;20519;-84
2022/06/25 09:12:09;;;;;;;0.50;0.30;;;33.00;60.60;;;;;;5075807;28;20483;-84
2022/06/25 09:14:37;;;;;;;0.50;0.30;;;31.20;64.10;;;;;;5079179;28;20460;-84
2022/06/25 09:17:06;;;;;;;0.50;0.30;;;31.10;64.50;;;;;;5077143;28;21100;-85
2022/06/25 09:19:36;;;;;;;0.50;0.33;;;31.60;63.60;;;;;;5076400;28;20444;-85
2022/06/25 09:22:06;;;;;;;0.50;0.50;;;32.20;63.20;;;;;;5075600;28;20464;-82
2022/06/25 09:24:48;;;;;;;0.80;0.50;;;32.10;62.80;;;;;;5075884;28;20499;-84
2022/06/25 09:27:19;;;;;;;0.70;0.50;;;32.90;62.60;;;;;;5076745;28;20412;-83
2022/06/25 09:29:49;;;;;;;0.50;0.30;;;34.60;60.20;;;;;;5076027;28;20436;-85
2022/06/25 09:32:17;;;;;;;5.80;0.50;;;35.20;58.90;;;;;;5075375;28;20445;-84
2022/06/25 09:34:46;;;;;;;0.50;0.30;;;35.40;57.60;;;;;;5076483;28;20460;-84
2022/06/25 09:37:27;;;;;;;0.50;0.40;;;35.80;56.80;;;;;;5075464;28;20440;-84
2022/06/25 09:39:55;;;;;;;0.60;0.60;;;35.70;55.60;;;;;;5075971;28;20444;-86
2022/06/25 09:42:26;;;;;;;0.50;0.30;;;36.20;56.20;;;;;;5076079;28;20468;-87
2022/06/25 09:45:01;;;;;;;0.60;0.60;;;36.80;55.70;;;;;;5075617;28;20475;-82
2022/06/25 09:47:28;;;;;;;0.50;0.30;;;35.30;54.90;;;;;;5076087;28;20518;-86
2022/06/25 09:50:12;;;;;;;0.50;0.40;;;33.50;57.90;;;;;;5076132;28;20515;-85
2022/06/25 09:52:50;;;;;;;0.50;0.30;;;31.60;60.50;;;;;;5076330;28;20504;-86
2022/06/25 09:55:17;;;;;;;0.60;0.40;;;31.20;63.40;;;;;;5075792;28;20466;-84
2022/06/25 09:57:45;;;;;;;0.50;0.40;;;32.10;60.90;;;;;;5075623;28;20467;-85
2022/06/25 10:00:14;;;;;;;0.50;0.30;;;33.10;58.80;;;;;;5074415;28;20439;-85
2022/06/25 10:02:43;;;;;;;0.50;0.30;;;33.10;58.50;;;;;;5075497;28;20437;-85
2022/06/25 10:05:12;;;;;;;0.50;0.30;;;33.50;59.00;;;;;;5074844;28;20493;-86
2022/06/25 10:10:29;;;;;;;0.50;0.30;;;35.40;57.80;;;;;;5074766;28;20478;-86
2022/06/25 10:12:56;;;;;;;0.50;0.30;;;35.20;55.40;;;;;;5075593;28;20622;-86
2022/06/25 10:15:24;;;;;;;0.50;0.40;;;35.20;56.20;;;;;;5075865;28;20455;-85
2022/06/25 10:17:53;;;;;;;1.13;1.03;;;34.90;56.10;;;;;;5076721;28;20444;-85
2022/06/25 10:20:23;;;;;;;0.50;0.30;;;33.90;56.40;;;;;;5079610;28;20446;-84
2022/06/25 10:22:52;;;;;;;1.00;0.60;;;33.40;57.20;;;;;;5079282;28;20857;-85
2022/06/25 10:25:21;;;;;;;0.60;0.50;;;34.10;57.40;;;;;;5079297;28;20563;-84
2022/06/25 10:27:50;;;;;;;0.50;0.30;;;34.90;55.60;;;;;;5078842;28;20922;-85
2022/06/25 10:30:37;;;;;;;0.50;0.40;;;35.10;56.10;;;;;;5078826;28;20440;-84
2022/06/25 10:33:04;;;;;;;0.60;0.60;;;35.90;54.50;;;;;;5079077;28;20443;-84
2022/06/25 10:35:35;;;;;;;15.77;0.60;;;36.00;53.00;;;;;;5079164;28;20484;-85
2022/06/25 10:38:04;;;;;;;0.50;0.30;;;34.60;54.00;;;;;;5078744;28;20432;-84
2022/06/25 10:40:32;;;;;;;0.50;0.40;;;34.00;54.80;;;;;;5079337;28;20478;-84
2022/06/25 10:43:04;;;;;;;1.17;1.17;;;33.60;55.00;;;;;;5079176;28;20581;-85
2022/06/25 10:45:56;;;;;;;0.50;0.30;;;32.20;57.50;;;;;;5078445;28;20471;-83
2022/06/25 10:48:25;;;;;;;0.50;0.30;;;31.40;59.10;;;;;;5079301;28;20851;-82
2022/06/25 10:50:55;;;;;;;0.50;0.30;;;31.50;60.90;;;;;;5078914;28;20530;-85
2022/06/25 10:53:26;;;;;;;0.50;0.30;;;31.80;59.50;;;;;;5079524;28;20467;-85
2022/06/25 10:56:01;;;;;;;0.50;0.30;;;31.80;59.20;;;;;;5078748;28;20538;-84
2022/06/25 10:58:41;;;;;;;0.50;0.40;;;32.20;59.20;;;;;;5078408;28;20534;-85
2022/06/25 11:01:19;;;;;;;0.50;0.30;;;33.00;58.30;;;;;;5077941;28;20416;-85
2022/06/25 11:03:46;;;;;;;6.03;0.90;;;32.30;59.00;;;;;;5078892;28;21032;-85
2022/06/25 11:06:23;;;;;;;1.00;0.50;;;32.50;60.80;;;;;;5078829;28;20906;-84
2022/06/25 11:08:51;;;;;;;3.37;0.60;;;31.70;59.60;;;;;;5078353;28;20918;-85
2022/06/25 11:11:26;;;;;;;0.50;0.30;;;31.20;60.40;;;;;;5078211;28;20442;-85
2022/06/25 11:13:53;;;;;;;0.50;0.30;;;30.40;62.70;;;;;;5078698;28;20435;-82
2022/06/25 11:16:20;;;;;;;1.10;1.10;;;29.40;65.20;;;;;;5078494;28;20523;-85
2022/06/25 11:18:49;;;;;;;3.60;0.83;;;29.60;64.30;;;;;;5078881;28;20471;-83
2022/06/25 11:21:28;;;;;;;0.80;0.80;;;29.10;65.70;;;;;;5078444;28;20436;-84
2022/06/25 11:24:10;;;;;;;0.50;0.30;;;29.70;66.10;;;;;;5078404;28;20510;-84
2022/06/25 11:29:24;;;;;;;0.53;0.37;;;31.00;64.10;;;;;;5077335;28;20453;-84
2022/06/25 11:31:52;;;;;;;0.50;0.30;;;31.40;62.10;;;;;;5078563;28;20833;-85
2022/06/25 11:34:20;;;;;;;0.50;0.40;;;31.50;61.00;;;;;;5078952;28;20895;-85
2022/06/25 11:37:03;;;;;;;1.20;0.80;;;31.30;61.00;;;;;;5078175;28;20528;-85
2022/06/25 11:39:31;;;;;;;0.50;0.30;;;30.80;60.60;;;;;;5078791;28;20459;-85
2022/06/25 11:41:58;;;;;;;0.50;0.40;;;30.40;64.20;;;;;;5078207;28;20472;-84
2022/06/25 11:44:25;;;;;;;0.60;0.60;;;30.40;64.00;;;;;;5078615;28;20460;-83
2022/06/25 11:46:54;;;;;;;0.50;0.30;;;29.70;65.00;;;;;;5078587;28;20478;-85
2022/06/25 11:49:22;;;;;;;0.83;0.50;;;28.90;65.00;;;;;;5078830;28;20444;-84
2022/06/25 11:51:52;;;;;;;1.03;0.60;;;28.60;67.70;;;;;;5079644;28;20496;-84
2022/06/25 11:54:23;;;;;;;0.50;0.40;;;27.90;66.20;;;;;;5078614;28;20999;-85
2022/06/25 11:56:55;;;;;;;0.50;0.30;;;27.70;68.30;;;;;;5122511;22;20499;-79
2022/06/25 11:59:30;;;;;;;0.50;0.30;;;27.90;67.80;;;;;;5067074;28;20453;-77
2022/06/25 12:01:58;;;;;;;0.50;0.30;;;27.90;68.10;;;;;;5073920;28;21048;-79
2022/06/25 12:04:26;;;;;;;0.50;0.30;;;28.10;68.70;;;;;;5073406;28;20494;-79
2022/06/25 12:06:54;;;;;;;0.50;0.30;;;28.20;66.30;;;;;;5073548;28;20551;-79
2022/06/25 12:09:22;;;;;;;0.50;0.30;;;28.50;67.10;;;;;;5073244;28;20440;-78
2022/06/25 12:11:55;;;;;;;0.50;0.40;;;28.70;66.40;;;;;;5073175;28;20437;-79
2022/06/25 12:14:23;;;;;;;0.50;0.30;;;28.40;66.00;;;;;;5073788;28;20436;-75
2022/06/25 12:16:51;;;;;;;0.50;0.40;;;28.20;69.50;;;;;;5073222;28;20462;-79
2022/06/25 12:19:19;;;;;;;0.60;0.40;;;28.20;68.00;;;;;;5073478;28;20452;-79
2022/06/25 12:21:46;;;;;;;0.50;0.30;;;28.00;68.50;;;;;;5073381;28;20526;-79
2022/06/25 12:24:16;;;;;;;0.50;0.30;;;27.70;68.90;;;;;;5072477;28;20448;-79
2022/06/25 12:26:51;;;;;;;0.50;0.40;;;27.50;74.00;;;;;;5073252;28;20468;-77
2022/06/25 12:29:19;;;;;;;0.50;0.30;;;27.60;71.30;;;;;;5072258;28;20442;-80
2022/06/25 12:31:53;;;;;;;4.40;1.17;;;27.70;75.90;;;;;;5073164;28;20531;-79
2022/06/25 12:34:20;;;;;;;0.50;0.30;;;27.70;71.60;;;;;;5072760;28;20444;-79
2022/06/25 12:36:49;;;;;;;0.50;0.40;;;27.70;72.70;;;;;;5072775;28;20455;-77
2022/06/25 12:39:35;;;;;;;0.50;0.40;;;27.40;71.60;;;;;;5072303;28;20444;-79
2022/06/25 12:42:08;;;;;;;0.87;0.40;;;27.50;74.10;;;;;;5071902;28;20515;-79
2022/06/25 12:44:37;;;;;;;0.50;0.30;;;27.40;74.30;;;;;;5073082;28;20436;-79
2022/06/25 12:47:07;;;;;;;0.50;0.30;;;27.10;75.90;;;;;;5072720;28;20838;-77
2022/06/25 12:49:52;;;;;;;0.50;0.30;;;26.90;75.40;;;;;;5072504;28;20858;-79
2022/06/25 12:52:20;;;;;;;0.50;0.40;;;27.00;75.80;;;;;;5072903;28;20527;-75
2022/06/25 12:54:51;;;;;;;1.13;0.70;;;27.50;76.50;;;;;;5072779;28;20471;-79
2022/06/25 12:57:26;;;;;;;1.70;0.73;;;28.40;74.70;;;;;;5072466;28;20472;-79
2022/06/25 12:59:53;;;;;;;0.50;0.30;;;28.80;73.10;;;;;;5072832;28;20451;-79
2022/06/25 13:02:21;;;;;;;0.50;0.40;;;28.90;72.10;;;;;;5072629;28;20977;-79
2022/06/25 13:04:48;;;;;;;0.60;0.40;;;28.90;74.10;;;;;;5072446;28;20447;-81
2022/06/25 13:07:15;;;;;;;0.50;0.30;;;29.60;71.90;;;;;;5072157;28;20507;-77
2022/06/25 13:09:44;;;;;;;0.50;0.30;;;30.20;69.10;;;;;;5072607;28;20523;-78